Time;durP1;ratioP1;P1;durP2;ratioP2;P2;SDS_P1;SDS_P2;PMS_P1;PMS_P2;Temp;Humidity;BMP_temperature;BMP_pressure;BME280_temperature;BME280_humidity;BME280_pressure;Samples;Min_cycle;Max_cycle;Signal;HPM_P1;HPM_P2
2024/04/02 00:00:04;;;;;;;;;;;12.90;98.90;;;;;;5076621;28;20055;-44
2024/04/02 00:02:30;;;;;;;;;;;12.90;99.00;;;;;;5080603;28;19989;-44
2024/04/02 00:04:55;;;;;;;;;;;12.80;98.90;;;;;;5078044;28;19909;-44
2024/04/02 00:07:21;;;;;;;;;;;12.80;98.80;;;;;;5081059;28;19920;-44
2024/04/02 00:09:47;;;;;;;;;;;12.90;98.80;;;;;;5079837;28;19915;-44
2024/04/02 00:12:12;;;;;;;;;;;12.90;98.80;;;;;;5078875;28;19913;-44
2024/04/02 00:14:38;;;;;;;;;;;12.80;98.90;;;;;;5078871;28;20383;-44
2024/04/02 00:17:03;;;;;;;;;;;12.80;98.80;;;;;;5081496;28;19952;-42
2024/04/02 00:19:29;;;;;;;;;;;12.80;98.80;;;;;;5077753;28;19920;-43
2024/04/02 00:21:54;;;;;;;;;;;12.80;98.90;;;;;;5079272;28;19995;-44
2024/04/02 00:24:20;;;;;;;;;;;12.80;98.90;;;;;;5079774;28;19922;-43
2024/04/02 00:26:45;;;;;;;;;;;12.80;98.80;;;;;;5080373;28;19924;-44
2024/04/02 00:29:11;;;;;;;;;;;12.70;99.10;;;;;;5078218;28;19951;-44
2024/04/02 00:31:37;;;;;;;;;;;12.70;99.20;;;;;;5080166;28;19909;-44
2024/04/02 00:34:02;;;;;;;;;;;12.70;99.50;;;;;;5080129;28;20042;-44
2024/04/02 00:36:28;;;;;;;;;;;12.70;99.50;;;;;;5077903;28;20005;-44
2024/04/02 00:38:53;;;;;;;;;;;12.70;99.70;;;;;;5076820;28;20007;-44
2024/04/02 00:41:19;;;;;;;;;;;12.70;99.70;;;;;;5077179;28;19962;-44
2024/04/02 00:43:44;;;;;;;;;;;12.70;99.80;;;;;;5076906;28;19913;-44
2024/04/02 00:46:10;;;;;;;;;;;12.60;99.80;;;;;;5076850;28;19962;-44
2024/04/02 00:48:35;;;;;;;;;;;12.60;99.90;;;;;;5078297;28;19968;-44
2024/04/02 00:51:01;;;;;;;;;;;12.70;99.80;;;;;;5076909;28;19923;-44
2024/04/02 00:53:26;;;;;;;;;;;12.70;99.80;;;;;;5078617;28;19959;-44
2024/04/02 00:55:52;;;;;;;;;;;12.70;99.70;;;;;;5077632;28;19947;-44
2024/04/02 00:58:18;;;;;;;;;;;12.70;99.70;;;;;;5078383;28;19916;-44
2024/04/02 01:00:44;;;;;;;;;;;12.70;99.60;;;;;;5077332;28;19991;-43
2024/04/02 01:03:09;;;;;;;;;;;12.70;99.60;;;;;;5079860;28;19915;-44
2024/04/02 01:05:36;;;;;;;;;;;12.70;99.60;;;;;;5078426;28;20350;-44
2024/04/02 01:08:02;;;;;;;;;;;12.80;99.50;;;;;;5077790;28;19930;-44
2024/04/02 01:10:28;;;;;;;;;;;12.80;99.40;;;;;;5076694;28;20480;-44
2024/04/02 01:12:54;;;;;;;;;;;12.70;99.50;;;;;;5080368;28;19916;-44
2024/04/02 01:15:20;;;;;;;;;;;12.80;99.50;;;;;;5077162;28;19908;-43
2024/04/02 01:17:47;;;;;;;;;;;12.70;99.40;;;;;;5078339;28;19923;-44
2024/04/02 01:20:13;;;;;;;;;;;12.80;99.40;;;;;;5078156;28;19908;-44
2024/04/02 01:22:38;;;;;;;;;;;12.70;99.40;;;;;;5079375;28;19915;-43
2024/04/02 01:25:04;;;;;;;;;;;12.70;99.40;;;;;;5076005;28;19920;-44
2024/04/02 01:27:30;;;;;;;;;;;12.70;99.50;;;;;;5078239;28;19920;-43
2024/04/02 01:29:58;;;;;;;;;;;12.70;99.50;;;;;;5078636;28;19951;-44
2024/04/02 01:32:24;;;;;;;;;;;12.70;99.40;;;;;;5088185;28;19909;-43
2024/04/02 01:34:49;;;;;;;;;;;12.70;99.60;;;;;;5082388;28;19958;-43
2024/04/02 01:37:15;;;;;;;;;;;12.70;99.60;;;;;;5088886;28;19912;-42
2024/04/02 01:39:41;;;;;;;;;;;12.70;99.60;;;;;;5083252;28;19912;-42
2024/04/02 01:42:06;;;;;;;;;;;12.70;99.70;;;;;;5088795;28;19912;-44
2024/04/02 01:44:32;;;;;;;;;;;12.70;99.60;;;;;;5083538;28;19908;-42
2024/04/02 01:46:57;;;;;;;;;;;12.60;99.30;;;;;;5089000;28;19912;-44
2024/04/02 01:49:23;;;;;;;;;;;12.60;99.30;;;;;;5084290;28;19950;-43
2024/04/02 01:51:48;;;;;;;;;;;12.60;99.30;;;;;;5089327;28;20007;-43
2024/04/02 01:54:14;;;;;;;;;;;12.60;99.10;;;;;;5084633;28;19908;-44
2024/04/02 01:56:39;;;;;;;;;;;12.50;99.30;;;;;;5089050;28;20069;-44
2024/04/02 01:59:05;;;;;;;;;;;12.40;99.60;;;;;;5084800;28;19908;-44
2024/04/02 02:01:30;;;;;;;;;;;12.40;99.80;;;;;;5089637;28;19908;-43
2024/04/02 02:03:56;;;;;;;;;;;12.40;99.90;;;;;;5085366;28;19987;-43
2024/04/02 02:06:21;;;;;;;;;;;12.40;99.90;;;;;;5089551;28;19912;-43
2024/04/02 02:08:47;;;;;;;;;;;12.40;99.90;;;;;;5086442;28;20323;-44
2024/04/02 02:11:12;;;;;;;;;;;12.50;99.90;;;;;;5090605;28;20363;-43
2024/04/02 02:13:38;;;;;;;;;;;12.40;99.90;;;;;;5087098;28;20360;-42
2024/04/02 02:16:04;;;;;;;;;;;12.50;99.90;;;;;;5089414;28;19912;-43
2024/04/02 02:18:30;;;;;;;;;;;12.50;99.80;;;;;;5084869;28;20395;-44
2024/04/02 02:20:56;;;;;;;;;;;12.50;99.70;;;;;;5081205;28;19908;-42
2024/04/02 02:23:22;;;;;;;;;;;12.50;99.60;;;;;;5081620;28;19915;-43
2024/04/02 02:25:48;;;;;;;;;;;12.50;99.50;;;;;;5087085;28;19961;-43
2024/04/02 02:28:14;;;;;;;;;;;12.50;99.60;;;;;;5082187;28;19960;-43
2024/04/02 02:30:39;;;;;;;;;;;12.50;99.60;;;;;;5076748;28;19916;-44
2024/04/02 02:33:05;;;;;;;;;;;12.50;99.50;;;;;;5068209;28;19985;-42
2024/04/02 02:35:30;;;;;;;;;;;12.50;99.60;;;;;;5079807;28;19977;-44
2024/04/02 02:37:56;;;;;;;;;;;12.50;99.60;;;;;;5075656;28;19965;-44
2024/04/02 02:40:21;;;;;;;;;;;12.50;99.40;;;;;;5078989;28;19983;-44
2024/04/02 02:42:47;;;;;;;;;;;12.50;99.50;;;;;;5077462;28;19968;-44
2024/04/02 02:45:12;;;;;;;;;;;12.50;99.60;;;;;;5062948;28;20450;-43
2024/04/02 02:47:38;;;;;;;;;;;12.50;99.60;;;;;;5073795;28;19921;-44
2024/04/02 02:50:03;;;;;;;;;;;12.50;99.60;;;;;;5074066;28;19916;-44
2024/04/02 02:52:29;;;;;;;;;;;12.50;99.70;;;;;;5087291;28;19909;-43
2024/04/02 02:54:55;;;;;;;;;;;12.50;99.60;;;;;;5074606;28;19912;-43
2024/04/02 02:57:21;;;;;;;;;;;12.50;99.80;;;;;;5074947;28;19908;-44
2024/04/02 02:59:46;;;;;;;;;;;12.50;99.90;;;;;;5077354;28;20007;-44
2024/04/02 03:02:12;;;;;;;;;;;12.40;99.90;;;;;;5075010;28;19923;-44
2024/04/02 03:04:37;;;;;;;;;;;12.40;99.90;;;;;;5075695;28;19909;-43
2024/04/02 03:07:03;;;;;;;;;;;12.40;99.90;;;;;;5067972;28;20112;-44
2024/04/02 03:09:28;;;;;;;;;;;12.40;99.90;;;;;;5080683;28;19919;-44
2024/04/02 03:11:54;;;;;;;;;;;12.40;99.80;;;;;;5081371;28;20375;-43
2024/04/02 03:14:20;;;;;;;;;;;12.50;99.80;;;;;;5081750;28;19908;-44
2024/04/02 03:16:46;;;;;;;;;;;12.50;99.70;;;;;;5081854;28;19909;-43
2024/04/02 03:19:11;;;;;;;;;;;12.50;99.80;;;;;;5082705;28;19927;-44
2024/04/02 03:21:37;;;;;;;;;;;12.50;99.80;;;;;;5083390;28;19908;-43
2024/04/02 03:24:03;;;;;;;;;;;12.50;99.80;;;;;;5084793;28;20237;-43
2024/04/02 03:26:29;;;;;;;;;;;12.50;99.90;;;;;;5084833;28;19956;-43
2024/04/02 03:28:54;;;;;;;;;;;12.50;99.80;;;;;;5084759;28;19915;-43
2024/04/02 03:31:20;;;;;;;;;;;12.50;99.90;;;;;;5082129;28;19916;-44
2024/04/02 03:33:45;;;;;;;;;;;12.50;99.80;;;;;;5080436;28;19916;-44
2024/04/02 03:36:11;;;;;;;;;;;12.50;99.80;;;;;;5078374;28;19913;-44
2024/04/02 03:38:36;;;;;;;;;;;12.50;99.80;;;;;;5082043;28;19974;-44
2024/04/02 03:41:08;;;;;;;;;;;12.50;99.80;;;;;;5084875;28;19916;-43
2024/04/02 03:43:34;;;;;;;;;;;12.50;99.80;;;;;;5087536;28;19999;-43
2024/04/02 03:46:03;;;;;;;;;;;12.50;99.90;;;;;;5083636;28;19920;-44
2024/04/02 03:48:29;;;;;;;;;;;12.40;99.90;;;;;;5089022;28;19972;-43
2024/04/02 03:50:55;;;;;;;;;;;12.40;99.90;;;;;;5083678;28;19960;-43
2024/04/02 03:53:21;;;;;;;;;;;12.40;99.90;;;;;;5089483;28;19908;-44
2024/04/02 03:55:46;;;;;;;;;;;12.40;99.90;;;;;;5082311;28;20545;-44
2024/04/02 03:58:12;;;;;;;;;;;12.40;99.90;;;;;;5090463;28;20399;-44
2024/04/02 04:00:43;;;;;;;;;;;12.40;99.80;;;;;;5085619;28;20479;-43
2024/04/02 04:03:09;;;;;;;;;;;12.40;99.80;;;;;;5078346;28;20406;-43
2024/04/02 04:05:35;;;;;;;;;;;12.30;99.70;;;;;;5086293;28;20452;-44
2024/04/02 04:08:00;;;;;;;;;;;12.30;99.60;;;;;;5091682;28;20007;-44
2024/04/02 04:10:26;;;;;;;;;;;12.40;99.70;;;;;;5087269;28;19997;-44
2024/04/02 04:12:51;;;;;;;;;;;12.40;99.70;;;;;;5091833;28;19908;-44
2024/04/02 04:15:17;;;;;;;;;;;12.30;99.70;;;;;;5085291;28;19916;-44
2024/04/02 04:17:42;;;;;;;;;;;12.30;99.60;;;;;;5083318;28;19975;-44
2024/04/02 04:20:08;;;;;;;;;;;12.30;99.60;;;;;;5083388;28;19908;-43
2024/04/02 04:22:34;;;;;;;;;;;12.40;99.70;;;;;;5074287;28;19917;-44
2024/04/02 04:25:01;;;;;;;;;;;12.40;99.70;;;;;;5076865;28;19908;-44
2024/04/02 04:27:32;;;;;;;;;;;12.30;99.70;;;;;;5068690;28;19920;-44
2024/04/02 04:30:00;;;;;;;;;;;12.40;99.80;;;;;;5070360;28;20612;-44
2024/04/02 04:32:26;;;;;;;;;;;12.30;99.80;;;;;;5072359;28;19916;-44
2024/04/02 04:34:52;;;;;;;;;;;12.30;99.90;;;;;;5072875;28;19909;-44
2024/04/02 04:37:17;;;;;;;;;;;12.30;99.90;;;;;;5069489;28;19917;-43
2024/04/02 04:39:43;;;;;;;;;;;12.30;99.90;;;;;;5071284;28;19920;-44
2024/04/02 04:42:08;;;;;;;;;;;12.30;99.90;;;;;;5072760;28;19923;-44
2024/04/02 04:44:34;;;;;;;;;;;12.30;99.90;;;;;;5072809;28;19912;-44
2024/04/02 04:46:59;;;;;;;;;;;12.30;99.90;;;;;;5071713;28;20380;-44
2024/04/02 04:49:25;;;;;;;;;;;12.30;99.90;;;;;;5071212;28;20356;-44
2024/04/02 04:51:50;;;;;;;;;;;12.30;99.90;;;;;;5068579;28;19924;-44
2024/04/02 04:54:16;;;;;;;;;;;12.20;99.90;;;;;;5076622;28;19975;-43
2024/04/02 04:56:42;;;;;;;;;;;12.30;99.90;;;;;;5076068;28;19916;-44
2024/04/02 04:59:07;;;;;;;;;;;12.20;99.90;;;;;;5074954;28;19934;-44
2024/04/02 05:01:33;;;;;;;;;;;12.20;99.90;;;;;;5066573;28;19973;-44
2024/04/02 05:03:58;;;;;;;;;;;12.20;99.90;;;;;;5074477;28;20036;-43
2024/04/02 05:06:23;;;;;;;;;;;12.20;99.90;;;;;;5074885;28;20015;-43
2024/04/02 05:08:49;;;;;;;;;;;12.20;99.90;;;;;;5074613;28;20007;-43
2024/04/02 05:11:15;;;;;;;;;;;12.20;99.90;;;;;;5074206;28;19912;-43
2024/04/02 05:13:40;;;;;;;;;;;12.30;99.90;;;;;;5074690;28;19934;-43
2024/04/02 05:16:06;;;;;;;;;;;12.20;99.90;;;;;;5070513;28;19916;-43
2024/04/02 05:18:32;;;;;;;;;;;12.20;99.90;;;;;;5060504;28;19916;-44
2024/04/02 05:20:58;;;;;;;;;;;12.30;99.90;;;;;;5075894;28;19920;-44
2024/04/02 05:23:26;;;;;;;;;;;12.30;99.90;;;;;;5071107;28;19919;-44
2024/04/02 05:25:56;;;;;;;;;;;12.30;99.90;;;;;;5072436;28;20322;-44
2024/04/02 05:28:22;;;;;;;;;;;12.30;99.90;;;;;;5069728;28;19934;-43
2024/04/02 05:30:47;;;;;;;;;;;12.30;99.90;;;;;;5075615;28;20383;-43
2024/04/02 05:33:13;;;;;;;;;;;12.30;99.90;;;;;;5075471;28;19983;-43
2024/04/02 05:35:38;;;;;;;;;;;12.30;99.90;;;;;;5079502;28;20320;-43
2024/04/02 05:38:04;;;;;;;;;;;12.30;99.90;;;;;;5078453;28;20325;-44
2024/04/02 05:40:31;;;;;;;;;;;12.30;99.90;;;;;;5080060;28;19908;-44
2024/04/02 05:42:56;;;;;;;;;;;12.40;99.90;;;;;;5067732;28;19960;-42
2024/04/02 05:45:22;;;;;;;;;;;12.30;99.90;;;;;;5073558;28;19912;-44
2024/04/02 05:47:47;;;;;;;;;;;12.40;99.90;;;;;;5072635;28;19916;-44
2024/04/02 05:50:15;;;;;;;;;;;12.40;99.90;;;;;;5075923;28;19916;-44
2024/04/02 05:52:41;;;;;;;;;;;12.40;99.90;;;;;;5069955;28;19909;-47
2024/04/02 05:55:06;;;;;;;;;;;12.40;99.90;;;;;;5074138;28;19908;-43
2024/04/02 05:57:32;;;;;;;;;;;12.40;99.90;;;;;;5075730;28;19909;-43
2024/04/02 05:59:57;;;;;;;;;;;12.40;99.90;;;;;;5071739;28;20012;-44
2024/04/02 06:02:23;;;;;;;;;;;12.40;99.90;;;;;;5068982;28;19927;-44
2024/04/02 06:04:48;;;;;;;;;;;12.40;99.90;;;;;;5064975;28;19916;-44
2024/04/02 06:07:14;;;;;;;;;;;12.40;99.90;;;;;;5069192;28;19951;-43
2024/04/02 06:09:40;;;;;;;;;;;12.50;99.90;;;;;;5067467;28;19913;-43
2024/04/02 06:12:05;;;;;;;;;;;12.50;99.90;;;;;;5065171;28;20040;-44
2024/04/02 06:14:31;;;;;;;;;;;12.50;99.90;;;;;;5066655;28;19913;-44
2024/04/02 06:16:57;;;;;;;;;;;12.50;99.90;;;;;;5065881;28;19912;-44
2024/04/02 06:19:22;;;;;;;;;;;12.50;99.90;;;;;;5066809;28;19920;-44
2024/04/02 06:21:48;;;;;;;;;;;12.50;99.90;;;;;;5069365;28;20367;-44
2024/04/02 06:24:14;;;;;;;;;;;12.50;99.90;;;;;;5067797;28;19996;-44
2024/04/02 06:26:39;;;;;;;;;;;12.50;99.90;;;;;;5071576;28;19917;-44
2024/04/02 06:29:05;;;;;;;;;;;12.60;99.90;;;;;;5073117;28;19908;-44
2024/04/02 06:31:30;;;;;;;;;;;12.60;99.90;;;;;;5073393;28;19962;-44
2024/04/02 06:33:56;;;;;;;;;;;12.60;99.90;;;;;;5073271;28;20081;-44
2024/04/02 06:36:22;;;;;;;;;;;12.60;99.90;;;;;;5068606;28;19915;-45
2024/04/02 06:38:48;;;;;;;;;;;12.60;99.90;;;;;;5070092;28;20003;-47
2024/04/02 06:41:14;;;;;;;;;;;12.60;99.90;;;;;;5070136;28;20003;-48
2024/04/02 06:43:40;;;;;;;;;;;12.60;99.90;;;;;;5073639;28;19912;-49
2024/04/02 06:46:05;;;;;;;;;;;12.60;99.90;;;;;;5072350;28;20006;-47
2024/04/02 06:48:31;;;;;;;;;;;12.60;99.90;;;;;;5072978;28;19932;-48
2024/04/02 06:50:57;;;;;;;;;;;12.70;99.90;;;;;;5074001;28;19908;-48
2024/04/02 06:53:23;;;;;;;;;;;12.70;99.90;;;;;;5073961;28;20030;-48
2024/04/02 06:55:49;;;;;;;;;;;12.70;99.90;;;;;;5074442;28;19923;-48
2024/04/02 06:58:14;;;;;;;;;;;12.70;99.90;;;;;;5073493;28;19912;-48
2024/04/02 07:00:40;;;;;;;;;;;12.70;99.90;;;;;;5073825;28;19909;-48
2024/04/02 07:03:05;;;;;;;;;;;12.70;99.90;;;;;;5073629;28;20030;-48
2024/04/02 07:05:31;;;;;;;;;;;12.70;99.90;;;;;;5068021;28;20376;-49
2024/04/02 07:07:56;;;;;;;;;;;12.70;99.90;;;;;;5071763;28;19920;-47
2024/04/02 07:10:22;;;;;;;;;;;12.70;99.90;;;;;;5072647;28;20403;-47
2024/04/02 07:12:47;;;;;;;;;;;12.70;99.90;;;;;;5071877;28;20012;-48
2024/04/02 07:15:13;;;;;;;;;;;12.80;99.90;;;;;;5071536;28;20011;-48
2024/04/02 07:17:38;;;;;;;;;;;12.80;99.90;;;;;;5071257;28;19927;-48
2024/04/02 07:20:04;;;;;;;;;;;12.80;99.90;;;;;;5072823;28;19912;-47
2024/04/02 07:22:29;;;;;;;;;;;12.80;99.90;;;;;;5074225;28;19916;-48
2024/04/02 07:24:55;;;;;;;;;;;12.80;99.90;;;;;;5071124;28;19916;-46
2024/04/02 07:27:20;;;;;;;;;;;12.80;99.90;;;;;;5073108;28;19916;-48
2024/04/02 07:29:46;;;;;;;;;;;12.80;99.90;;;;;;5073004;28;19909;-48
2024/04/02 07:32:11;;;;;;;;;;;12.80;99.90;;;;;;5072879;28;19966;-48
2024/04/02 07:34:37;;;;;;;;;;;12.80;99.90;;;;;;5070688;28;19947;-48
2024/04/02 07:37:02;;;;;;;;;;;12.80;99.90;;;;;;5073126;28;19955;-50
2024/04/02 07:39:28;;;;;;;;;;;12.80;99.90;;;;;;5073297;28;20003;-48
2024/04/02 07:41:53;;;;;;;;;;;12.90;99.90;;;;;;5071507;28;19922;-52
2024/04/02 07:44:19;;;;;;;;;;;12.90;99.90;;;;;;5070786;28;19963;-48
2024/04/02 07:46:44;;;;;;;;;;;12.90;99.90;;;;;;5073524;28;20345;-48
2024/04/02 07:49:10;;;;;;;;;;;12.90;99.90;;;;;;5073429;28;19909;-49
2024/04/02 07:51:35;;;;;;;;;;;12.90;99.90;;;;;;5073739;28;19916;-49
2024/04/02 07:54:01;;;;;;;;;;;12.90;99.90;;;;;;5074464;28;19954;-49
2024/04/02 07:56:26;;;;;;;;;;;12.90;99.90;;;;;;5077661;28;19962;-48
2024/04/02 07:58:52;;;;;;;;;;;12.90;99.90;;;;;;5077006;28;19958;-54
2024/04/02 08:01:17;;;;;;;;;;;12.90;99.90;;;;;;5077606;28;19915;-49
2024/04/02 08:03:43;;;;;;;;;;;12.90;99.90;;;;;;5078434;28;19908;-49
2024/04/02 08:06:08;;;;;;;;;;;12.90;99.90;;;;;;5077744;28;20383;-49
2024/04/02 08:08:34;;;;;;;;;;;12.90;99.90;;;;;;5077891;28;19909;-50
2024/04/02 08:10:59;;;;;;;;;;;12.90;99.90;;;;;;5077887;28;19909;-50
2024/04/02 08:13:25;;;;;;;;;;;12.90;99.90;;;;;;5077774;28;19913;-49
2024/04/02 08:15:50;;;;;;;;;;;12.90;99.90;;;;;;5077658;28;20291;-49
2024/04/02 08:18:16;;;;;;;;;;;13.00;99.90;;;;;;5077271;28;19920;-51
2024/04/02 08:20:42;;;;;;;;;;;13.00;99.90;;;;;;5078147;28;19919;-50
2024/04/02 08:23:08;;;;;;;;;;;13.00;99.90;;;;;;5076976;28;19990;-55
2024/04/02 08:25:34;;;;;;;;;;;13.00;99.90;;;;;;5075972;28;21634;-49
2024/04/02 08:28:00;;;;;;;;;;;13.00;99.90;;;;;;5073292;28;19916;-49
2024/04/02 08:30:25;;;;;;;;;;;13.00;99.90;;;;;;5076215;28;20334;-51
2024/04/02 08:32:51;;;;;;;;;;;13.00;99.90;;;;;;5076911;28;19919;-50
2024/04/02 08:35:16;;;;;;;;;;;13.10;99.90;;;;;;5077347;28;19909;-50
2024/04/02 08:37:42;;;;;;;;;;;13.10;99.90;;;;;;5077496;28;19909;-54
2024/04/02 08:40:09;;;;;;;;;;;13.10;99.90;;;;;;5071970;28;19924;-53
2024/04/02 08:42:37;;;;;;;;;;;13.10;99.90;;;;;;5062563;28;19919;-53
2024/04/02 08:45:03;;;;;;;;;;;13.10;99.90;;;;;;5067464;28;19909;-54
2024/04/02 08:47:30;;;;;;;;;;;13.10;99.90;;;;;;5076547;28;19959;-52
2024/04/02 08:49:56;;;;;;;;;;;13.10;99.90;;;;;;5077008;28;19912;-50
2024/04/02 08:52:21;;;;;;;;;;;13.10;99.90;;;;;;5077236;28;19915;-53
2024/04/02 08:54:47;;;;;;;;;;;13.10;99.90;;;;;;5077208;28;19909;-53
2024/04/02 08:57:12;;;;;;;;;;;13.10;99.90;;;;;;5077315;28;19915;-50
2024/04/02 08:59:40;;;;;;;;;;;13.10;99.90;;;;;;5077407;28;19915;-49
2024/04/02 09:02:07;;;;;;;;;;;13.10;99.90;;;;;;5076983;28;19909;-52
2024/04/02 09:04:32;;;;;;;;;;;13.10;99.90;;;;;;5077126;28;19909;-52
2024/04/02 09:06:58;;;;;;;;;;;13.10;99.90;;;;;;5064826;28;19913;-51
2024/04/02 09:09:24;;;;;;;;;;;13.10;99.90;;;;;;5077232;28;19934;-48
2024/04/02 09:11:50;;;;;;;;;;;13.10;99.90;;;;;;5076727;28;20764;-49
2024/04/02 09:14:16;;;;;;;;;;;13.10;99.90;;;;;;5077016;28;19913;-52
2024/04/02 09:16:42;;;;;;;;;;;13.10;99.90;;;;;;5076685;28;19914;-51
2024/04/02 09:19:07;;;;;;;;;;;13.10;99.90;;;;;;5076216;28;19928;-48
2024/04/02 09:21:33;;;;;;;;;;;13.10;99.90;;;;;;5076982;28;20398;-51
2024/04/02 09:23:59;;;;;;;;;;;13.10;99.90;;;;;;5075962;28;19909;-50
2024/04/02 09:26:24;;;;;;;;;;;13.10;99.90;;;;;;5075616;28;19921;-50
2024/04/02 09:28:50;;;;;;;;;;;13.10;99.90;;;;;;5073446;28;19912;-48
2024/04/02 09:31:17;;;;;;;;;;;13.10;99.90;;;;;;5064777;28;22106;-50
2024/04/02 09:33:52;;;;;;;;;;;13.10;99.90;;;;;;5076625;28;19912;-48
2024/04/02 09:36:27;;;;;;;;;;;13.10;99.90;;;;;;5070721;28;19968;-48
2024/04/02 09:38:53;;;;;;;;;;;13.10;99.90;;;;;;5075293;28;19909;-49
2024/04/02 09:41:19;;;;;;;;;;;13.10;99.90;;;;;;5076407;28;19909;-49
2024/04/02 09:43:46;;;;;;;;;;;13.10;99.90;;;;;;5075080;28;19908;-50
2024/04/02 09:46:12;;;;;;;;;;;13.10;99.90;;;;;;5075908;28;19934;-49
2024/04/02 09:48:39;;;;;;;;;;;13.20;99.90;;;;;;5075800;28;19977;-51
2024/04/02 09:51:05;;;;;;;;;;;13.20;99.90;;;;;;5066090;28;19920;-50
2024/04/02 09:53:31;;;;;;;;;;;13.20;99.90;;;;;;5068345;28;19912;-53
2024/04/02 09:55:56;;;;;;;;;;;13.20;99.90;;;;;;5067744;28;19916;-50
2024/04/02 09:58:22;;;;;;;;;;;13.20;99.90;;;;;;5069309;28;19935;-49
2024/04/02 10:00:53;;;;;;;;;;;13.20;99.90;;;;;;5074885;28;20018;-50
2024/04/02 10:03:20;;;;;;;;;;;13.20;99.90;;;;;;5075743;28;19909;-51
2024/04/02 10:05:46;;;;;;;;;;;13.20;99.90;;;;;;5075411;28;19920;-49
2024/04/02 10:08:11;;;;;;;;;;;13.20;99.90;;;;;;5062577;28;19913;-49
2024/04/02 10:10:39;;;;;;;;;;;13.20;99.90;;;;;;5065509;28;19931;-49
2024/04/02 10:13:06;;;;;;;;;;;13.20;99.90;;;;;;5063746;28;19999;-50
2024/04/02 10:15:32;;;;;;;;;;;13.30;99.90;;;;;;5072427;28;19913;-51
2024/04/02 10:17:59;;;;;;;;;;;13.30;99.90;;;;;;5063353;28;20015;-52
2024/04/02 10:20:26;;;;;;;;;;;13.30;99.90;;;;;;5069107;28;19920;-49
2024/04/02 10:22:55;;;;;;;;;;;13.30;99.90;;;;;;5073931;28;19928;-53
2024/04/02 10:25:20;;;;;;;;;;;13.20;99.90;;;;;;5074266;28;19918;-52
2024/04/02 10:27:49;;;;;;;;;;;13.30;99.90;;;;;;5074052;28;20003;-49
2024/04/02 10:30:18;;;;;;;;;;;13.30;99.90;;;;;;5074580;28;19951;-50
2024/04/02 10:32:44;;;;;;;;;;;13.30;99.90;;;;;;5075018;28;19913;-49
2024/04/02 10:35:25;;;;;;;;;;;13.30;99.90;;;;;;5074900;28;19914;-49
2024/04/02 10:37:52;;;;;;;;;;;13.30;99.90;;;;;;5074612;28;19908;-51
2024/04/02 10:40:17;;;;;;;;;;;13.30;99.90;;;;;;5074727;28;20303;-50
2024/04/02 10:42:44;;;;;;;;;;;13.30;99.90;;;;;;5074788;28;19912;-51
2024/04/02 10:45:09;;;;;;;;;;;13.30;99.90;;;;;;5074701;28;19920;-53
2024/04/02 10:47:36;;;;;;;;;;;13.30;99.90;;;;;;5064071;28;20006;-53
2024/04/02 10:50:03;;;;;;;;;;;13.30;99.90;;;;;;5072906;28;20393;-49
2024/04/02 10:52:34;;;;;;;;;;;13.30;99.90;;;;;;5072329;28;19958;-50
2024/04/02 10:54:59;;;;;;;;;;;13.30;99.90;;;;;;5069473;28;19913;-53
2024/04/02 10:57:26;;;;;;;;;;;13.40;99.90;;;;;;5066729;28;19970;-51
2024/04/02 10:59:52;;;;;;;;;;;13.40;99.90;;;;;;5066298;28;20378;-49
2024/04/02 11:02:18;;;;;;;;;;;13.40;99.90;;;;;;5061990;28;19912;-49
2024/04/02 11:04:45;;;;;;;;;;;13.40;99.90;;;;;;5073387;28;19909;-48
2024/04/02 11:07:11;;;;;;;;;;;13.40;99.90;;;;;;5059393;28;19942;-49
2024/04/02 11:09:39;;;;;;;;;;;13.40;99.90;;;;;;5068823;28;20360;-49
2024/04/02 11:12:05;;;;;;;;;;;13.40;99.90;;;;;;5054009;28;19916;-49
2024/04/02 11:14:31;;;;;;;;;;;13.40;99.90;;;;;;5057111;28;19923;-48
2024/04/02 11:16:56;;;;;;;;;;;13.40;99.90;;;;;;5062879;28;19960;-52
2024/04/02 11:19:22;;;;;;;;;;;13.50;99.90;;;;;;5072510;28;19931;-50
2024/04/02 11:24:57;;;;;;;;;;;13.40;99.90;;;;;;5067579;28;19920;-49
2024/04/02 11:27:21;;;;;;;;;;;13.50;99.90;;;;;;5061488;28;19997;-49
2024/04/02 11:29:46;;;;;;;;;;;13.50;99.90;;;;;;5067449;28;20055;-49
2024/04/02 11:32:12;;;;;;;;;;;13.40;99.90;;;;;;5060384;28;19939;-48
2024/04/02 11:34:37;;;;;;;;;;;13.40;99.90;;;;;;5077197;28;19948;-49
2024/04/02 11:37:03;;;;;;;;;;;13.50;99.90;;;;;;5077934;28;19955;-49
2024/04/02 11:39:28;;;;;;;;;;;13.50;99.90;;;;;;5074443;28;19944;-49
2024/04/02 11:41:54;;;;;;;;;;;13.50;99.90;;;;;;5063597;28;20008;-50
2024/04/02 11:44:19;;;;;;;;;;;13.50;99.90;;;;;;5063964;28;19915;-49
2024/04/02 11:46:45;;;;;;;;;;;13.50;99.90;;;;;;5077899;28;19916;-49
2024/04/02 11:49:10;;;;;;;;;;;13.50;99.90;;;;;;5078124;28;19908;-49
2024/04/02 11:51:36;;;;;;;;;;;13.50;99.90;;;;;;5075379;28;19916;-50
2024/04/02 11:54:01;;;;;;;;;;;13.50;99.90;;;;;;5069083;28;19916;-48
2024/04/02 12:00:01;;;;;;;;;;;13.50;99.90;;;;;;5078310;28;19908;-48
2024/04/02 12:02:00;;;;;;;;;;;13.50;99.90;;;;;;5076200;28;19915;-49
2024/04/02 12:04:25;;;;;;;;;;;13.50;99.90;;;;;;5077922;28;20380;-49
2024/04/02 12:06:55;;;;;;;;;;;13.50;99.90;;;;;;5067860;28;20375;-50
2024/04/02 12:09:20;;;;;;;;;;;13.50;99.90;;;;;;5072142;28;20031;-49
2024/04/02 12:11:46;;;;;;;;;;;13.60;99.90;;;;;;5068324;28;21041;-50
2024/04/02 12:14:12;;;;;;;;;;;13.50;99.90;;;;;;5062333;28;20007;-53
2024/04/02 12:16:37;;;;;;;;;;;13.60;99.90;;;;;;5060654;28;20454;-52
2024/04/02 12:19:03;;;;;;;;;;;13.50;99.90;;;;;;5060530;28;19924;-52
2024/04/02 12:21:29;;;;;;;;;;;13.60;99.90;;;;;;5058723;28;20452;-53
2024/04/02 12:23:54;;;;;;;;;;;13.60;99.90;;;;;;5060688;28;19909;-52
2024/04/02 12:26:20;;;;;;;;;;;13.50;99.90;;;;;;5060576;28;20398;-52
2024/04/02 12:28:45;;;;;;;;;;;13.60;99.90;;;;;;5057913;28;19950;-50
2024/04/02 12:31:11;;;;;;;;;;;13.60;99.90;;;;;;5064459;28;19947;-53
2024/04/02 12:33:37;;;;;;;;;;;13.60;99.90;;;;;;5071497;28;20410;-51
2024/04/02 12:36:03;;;;;;;;;;;13.60;99.90;;;;;;5073801;28;19940;-53
2024/04/02 12:38:29;;;;;;;;;;;13.60;99.90;;;;;;5074432;28;20359;-52
2024/04/02 12:40:54;;;;;;;;;;;13.60;99.90;;;;;;5073015;28;19931;-53
2024/04/02 12:43:20;;;;;;;;;;;13.60;99.90;;;;;;5073674;28;19935;-53
2024/04/02 12:45:49;;;;;;;;;;;13.60;99.90;;;;;;5073448;28;20350;-53
2024/04/02 12:48:14;;;;;;;;;;;13.60;99.90;;;;;;5074702;28;19920;-51
2024/04/02 12:50:48;;;;;;;;;;;13.60;99.90;;;;;;5076554;28;19909;-53
2024/04/02 12:53:14;;;;;;;;;;;13.60;99.90;;;;;;5070410;28;19920;-53
2024/04/02 12:55:39;;;;;;;;;;;13.60;99.90;;;;;;5076136;28;19909;-53
2024/04/02 12:58:05;;;;;;;;;;;13.60;99.90;;;;;;5074819;28;19966;-53
2024/04/02 13:00:30;;;;;;;;;;;13.60;99.90;;;;;;5076746;28;19909;-53
2024/04/02 13:02:56;;;;;;;;;;;13.60;99.90;;;;;;5072110;28;19916;-52
2024/04/02 13:05:22;;;;;;;;;;;13.60;99.90;;;;;;5070891;28;20459;-49
2024/04/02 13:07:47;;;;;;;;;;;13.60;99.90;;;;;;5069505;28;20011;-50
2024/04/02 13:10:13;;;;;;;;;;;13.60;99.90;;;;;;5070975;28;19913;-53
2024/04/02 13:12:38;;;;;;;;;;;13.60;99.90;;;;;;5062020;28;19912;-50
2024/04/02 13:15:04;;;;;;;;;;;13.60;99.90;;;;;;5073524;28;19913;-53
2024/04/02 13:17:29;;;;;;;;;;;13.60;99.90;;;;;;5069866;28;19952;-53
2024/04/02 13:19:56;;;;;;;;;;;13.60;99.90;;;;;;5059394;28;19913;-53
2024/04/02 13:22:22;;;;;;;;;;;13.60;99.90;;;;;;5065844;28;19919;-49
2024/04/02 13:24:47;;;;;;;;;;;13.60;99.90;;;;;;5074349;28;19908;-50
2024/04/02 13:27:13;;;;;;;;;;;13.60;99.90;;;;;;5069847;28;19971;-50
2024/04/02 13:29:38;;;;;;;;;;;13.60;99.90;;;;;;5059892;28;19958;-50
2024/04/02 13:32:04;;;;;;;;;;;13.70;99.90;;;;;;5073649;28;19908;-49
2024/04/02 13:34:30;;;;;;;;;;;13.70;99.90;;;;;;5074084;28;19908;-49
2024/04/02 13:36:55;;;;;;;;;;;13.60;99.90;;;;;;5074997;28;20303;-49
2024/04/02 13:39:21;;;;;;;;;;;13.70;99.90;;;;;;5075342;28;19908;-50
2024/04/02 13:41:46;;;;;;;;;;;13.70;99.90;;;;;;5075163;28;20371;-50
2024/04/02 13:44:12;;;;;;;;;;;13.70;99.90;;;;;;5075167;28;19943;-50
2024/04/02 13:46:37;;;;;;;;;;;13.70;99.90;;;;;;5075611;28;20292;-50
2024/04/02 13:49:03;;;;;;;;;;;13.70;99.90;;;;;;5071050;28;20037;-50
2024/04/02 13:51:28;;;;;;;;;;;13.70;99.90;;;;;;5071863;28;19917;-50
2024/04/02 13:53:54;;;;;;;;;;;13.70;99.90;;;;;;5068824;28;19991;-49
2024/04/02 13:56:21;;;;;;;;;;;13.70;99.90;;;;;;5063787;28;19963;-49
2024/04/02 13:58:47;;;;;;;;;;;13.70;99.90;;;;;;5066142;28;19927;-49
2024/04/02 14:01:13;;;;;;;;;;;13.70;99.90;;;;;;5073203;28;19912;-49
2024/04/02 14:03:39;;;;;;;;;;;13.70;99.90;;;;;;5074431;28;19908;-50
2024/04/02 14:06:05;;;;;;;;;;;13.70;99.90;;;;;;5066223;28;19995;-49
2024/04/02 14:08:31;;;;;;;;;;;13.70;99.90;;;;;;5073688;28;19914;-49
2024/04/02 14:10:57;;;;;;;;;;;13.70;99.90;;;;;;5074420;28;19972;-50
2024/04/02 14:13:23;;;;;;;;;;;13.70;99.90;;;;;;5070450;28;20284;-49